createdAt,value
2018-09-22T00:02:11.431Z,17.13
2018-09-22T00:04:40.433Z,17.11
2018-09-22T00:07:09.785Z,17.11
2018-09-22T00:09:38.643Z,17.14
2018-09-22T00:12:07.532Z,17.20
2018-09-22T00:14:36.557Z,17.17
2018-09-22T00:17:05.627Z,17.16
2018-09-22T00:19:34.777Z,17.12
2018-09-22T00:22:03.964Z,17.12
2018-09-22T00:24:32.756Z,17.10
2018-09-22T00:27:01.778Z,17.02
2018-09-22T00:29:30.988Z,16.98
2018-09-22T00:31:59.852Z,16.91
2018-09-22T00:34:28.899Z,16.86
2018-09-22T00:36:58.244Z,16.85
2018-09-22T00:39:27.197Z,16.83
2018-09-22T00:41:56.994Z,16.81
2018-09-22T00:44:26.052Z,16.74
2018-09-22T00:46:55.093Z,16.63
2018-09-22T00:49:24.076Z,16.54
2018-09-22T00:53:22.766Z,16.51
2018-09-22T00:55:51.702Z,16.50
2018-09-22T00:58:20.789Z,16.49
2018-09-22T01:00:49.835Z,16.50
2018-09-22T01:03:18.616Z,16.50
2018-09-22T01:05:47.861Z,16.39
2018-09-22T01:08:17.521Z,16.43
2018-09-22T01:10:46.709Z,16.33
2018-09-22T01:13:15.699Z,16.26
2018-09-22T01:15:44.687Z,16.34
2018-09-22T01:18:13.690Z,16.34
2018-09-22T01:20:42.597Z,16.36
2018-09-22T01:23:11.856Z,16.31
2018-09-22T01:25:40.795Z,16.27
2018-09-22T01:28:09.586Z,16.23
2018-09-22T01:30:38.919Z,16.24
2018-09-22T01:33:07.948Z,16.14
2018-09-22T01:35:36.979Z,16.19
2018-09-22T01:38:06.071Z,16.17
2018-09-22T01:40:35.159Z,16.12
2018-09-22T01:43:04.012Z,16.02
2018-09-22T01:45:33.034Z,15.97
2018-09-22T01:48:01.974Z,15.95
2018-09-22T01:50:30.881Z,15.90
2018-09-22T01:52:59.758Z,15.89
2018-09-22T01:55:28.711Z,15.95
2018-09-22T01:57:57.671Z,15.84
2018-09-22T02:00:27.522Z,15.85
2018-09-22T02:02:56.562Z,15.89
2018-09-22T02:05:25.363Z,15.91
2018-09-22T02:07:54.749Z,15.94
2018-09-22T02:10:23.658Z,15.93
2018-09-22T02:12:52.629Z,15.96
2018-09-22T02:15:21.669Z,15.93
2018-09-22T02:17:50.532Z,15.93
2018-09-22T02:20:19.638Z,16.00
2018-09-22T02:22:49.073Z,15.96
2018-09-22T02:25:17.902Z,15.89
2018-09-22T02:27:46.858Z,15.86
2018-09-22T02:30:15.873Z,15.91
2018-09-22T02:32:44.920Z,15.88
2018-09-22T02:35:13.891Z,15.83
2018-09-22T02:37:43.171Z,15.80
2018-09-22T02:40:11.974Z,15.77
2018-09-22T02:42:41.054Z,15.70
2018-09-22T02:45:10.479Z,15.75
2018-09-22T02:47:39.423Z,15.67
2018-09-22T02:50:08.326Z,15.61
2018-09-22T02:52:37.523Z,15.57
2018-09-22T02:55:06.551Z,15.59
2018-09-22T02:57:35.646Z,15.60
2018-09-22T03:00:05.017Z,15.68
2018-09-22T03:02:33.889Z,15.64
2018-09-22T03:05:02.928Z,15.64
2018-09-22T03:07:31.995Z,15.62
2018-09-22T03:10:00.997Z,15.61
2018-09-22T03:12:30.018Z,15.63
2018-09-22T03:14:59.179Z,15.61
2018-09-22T03:17:28.064Z,15.56
2018-09-22T03:19:56.928Z,15.58
2018-09-22T03:22:25.983Z,15.53
2018-09-22T03:24:55.014Z,15.48
2018-09-22T03:27:26.297Z,15.46
2018-09-22T03:29:55.247Z,15.44
2018-09-22T03:32:24.343Z,15.39
2018-09-22T03:34:53.725Z,15.42
2018-09-22T03:37:22.660Z,15.48
2018-09-22T03:39:51.772Z,15.50
2018-09-22T03:42:20.645Z,15.47
2018-09-22T03:44:49.659Z,15.53
2018-09-22T03:47:18.713Z,15.46
2018-09-22T03:49:48.333Z,15.39
2018-09-22T03:52:17.305Z,15.44
2018-09-22T03:54:46.386Z,15.53
2018-09-22T03:57:15.452Z,15.54
2018-09-22T03:59:44.437Z,15.50
2018-09-22T04:02:13.351Z,15.41
2018-09-22T04:04:42.814Z,15.33
2018-09-22T04:07:11.839Z,15.31
2018-09-22T04:09:41.792Z,15.26
2018-09-22T04:12:10.854Z,15.29
2018-09-22T04:14:39.833Z,15.31
2018-09-22T04:17:09.050Z,15.26
2018-09-22T04:19:38.630Z,15.27
2018-09-22T04:22:07.790Z,15.25
2018-09-22T04:24:36.739Z,15.29
2018-09-22T04:27:05.931Z,15.40
2018-09-22T04:29:34.962Z,15.45
2018-09-22T04:32:04.049Z,15.48
2018-09-22T04:34:33.097Z,15.45
2018-09-22T04:37:02.195Z,15.49
2018-09-22T04:39:31.059Z,15.56
2018-09-22T04:42:00.505Z,15.62
2018-09-22T04:44:29.391Z,15.65
2018-09-22T04:46:58.232Z,15.77
2018-09-22T04:49:27.765Z,15.86
2018-09-22T04:51:56.661Z,15.92
2018-09-22T04:54:25.595Z,15.95
2018-09-22T04:56:54.814Z,15.99
2018-09-22T04:59:23.890Z,16.07
2018-09-22T05:08:37.367Z,16.30
2018-09-22T05:11:06.513Z,16.34
2018-09-22T05:15:05.695Z,16.39
2018-09-22T05:17:34.741Z,16.40
2018-09-22T05:20:03.707Z,16.43
2018-09-22T05:22:33.099Z,16.43
2018-09-22T05:25:02.017Z,16.52
2018-09-22T05:27:31.349Z,16.58
2018-09-22T05:30:00.530Z,16.59
2018-09-22T05:32:29.524Z,16.64
2018-09-22T05:34:58.994Z,16.80
2018-09-22T05:37:28.142Z,16.85
2018-09-22T05:39:57.195Z,16.89
2018-09-22T05:42:27.130Z,16.91
2018-09-22T05:44:56.844Z,16.93
2018-09-22T05:47:25.833Z,16.97
2018-09-22T05:49:54.761Z,16.99
2018-09-22T05:52:23.627Z,17.05
2018-09-22T05:54:52.577Z,17.06
2018-09-22T05:57:21.679Z,17.07
2018-09-22T05:59:50.684Z,17.09
2018-09-22T06:02:19.937Z,17.11
2018-09-22T06:04:49.317Z,17.16
2018-09-22T06:07:18.281Z,17.19
2018-09-22T06:09:47.453Z,17.28
2018-09-22T06:12:16.865Z,17.43
2018-09-22T06:14:45.923Z,17.55
2018-09-22T06:17:16.411Z,17.64
2018-09-22T06:19:45.729Z,17.72
2018-09-22T06:22:16.052Z,17.87
2018-09-22T06:24:45.495Z,18.03
2018-09-22T06:27:14.459Z,18.24
2018-09-22T06:29:43.662Z,18.34
2018-09-22T06:32:13.221Z,18.40
2018-09-22T06:34:42.411Z,18.42
2018-09-22T06:37:11.545Z,18.46
2018-09-22T06:39:40.402Z,18.51
2018-09-22T06:43:38.808Z,18.54
2018-09-22T06:46:08.418Z,18.60
2018-09-22T06:48:37.575Z,18.69
2018-09-22T06:51:06.919Z,18.81
2018-09-22T06:53:35.857Z,18.93
2018-09-22T06:56:04.773Z,19.08
2018-09-22T06:58:33.687Z,19.21
2018-09-22T07:01:03.134Z,19.31
2018-09-22T07:03:32.018Z,19.37
2018-09-22T07:06:00.977Z,19.49
2018-09-22T07:08:29.894Z,19.56
2018-09-22T07:10:58.984Z,19.67
2018-09-22T07:13:27.984Z,19.88
2018-09-22T07:15:57.091Z,19.89
2018-09-22T07:18:26.113Z,20.03
2018-09-22T07:21:00.372Z,20.11
2018-09-22T07:23:29.274Z,20.20
2018-09-22T07:25:58.313Z,20.29
2018-09-22T07:28:27.701Z,20.31
2018-09-22T07:30:57.699Z,20.47
2018-09-22T07:34:55.995Z,20.64
2018-09-22T07:37:24.991Z,20.82
2018-09-22T07:39:55.415Z,20.80
2018-09-22T07:42:24.562Z,20.90
2018-09-22T07:44:53.556Z,21.02
2018-09-22T07:47:22.503Z,21.00
2018-09-22T07:49:51.931Z,21.21
2018-09-22T07:52:20.847Z,21.33
2018-09-22T07:54:49.755Z,21.36
2018-09-22T07:57:18.881Z,21.46
2018-09-22T07:59:47.906Z,21.64
2018-09-22T08:02:17.153Z,21.83
2018-09-22T08:04:46.493Z,21.85
2018-09-22T08:07:15.340Z,22.03
2018-09-22T08:09:44.306Z,22.13
2018-09-22T08:12:13.367Z,22.22
2018-09-22T08:14:42.408Z,22.36
2018-09-22T08:17:11.501Z,22.40
2018-09-22T08:19:40.866Z,22.48
2018-09-22T08:22:09.723Z,22.66
2018-09-22T08:24:38.701Z,22.78
2018-09-22T08:27:07.778Z,22.85
2018-09-22T08:29:36.764Z,22.89
2018-09-22T08:32:05.896Z,23.05
2018-09-22T08:34:35.337Z,23.22
2018-09-22T08:37:04.500Z,23.25
2018-09-22T08:39:33.450Z,23.46
2018-09-22T08:42:04.355Z,23.58
2018-09-22T08:44:33.453Z,23.61
2018-09-22T08:47:02.464Z,23.62
2018-09-22T08:49:31.835Z,23.63
2018-09-22T08:52:00.837Z,23.84
2018-09-22T08:54:29.772Z,23.71
2018-09-22T08:57:00.147Z,23.71
2018-09-22T08:59:29.080Z,23.90
2018-09-22T09:01:58.138Z,23.84
2018-09-22T09:04:27.849Z,24.06
2018-09-22T09:06:56.962Z,24.26
2018-09-22T09:09:26.094Z,24.44
2018-09-22T09:11:55.084Z,24.58
2018-09-22T09:14:23.930Z,24.73
2018-09-22T09:16:53.313Z,24.76
2018-09-22T09:19:22.398Z,24.87
2018-09-22T09:21:51.233Z,24.88
2018-09-22T09:24:20.204Z,24.92
2018-09-22T09:26:50.631Z,25.03
2018-09-22T09:29:19.551Z,24.95
2018-09-22T09:31:48.390Z,25.08
2018-09-22T09:34:17.326Z,25.25
2018-09-22T09:36:46.246Z,25.35
2018-09-22T09:39:15.075Z,25.30
2018-09-22T09:41:44.312Z,25.19
2018-09-22T09:44:13.265Z,25.35
2018-09-22T09:46:42.218Z,25.45
2018-09-22T09:49:11.679Z,25.59
2018-09-22T09:51:40.596Z,25.81
2018-09-22T09:54:09.368Z,25.95
2018-09-22T09:56:38.430Z,25.54
2018-09-22T09:59:07.414Z,25.67
2018-09-22T10:01:36.303Z,25.78
2018-09-22T10:04:05.594Z,25.90
2018-09-22T10:06:34.652Z,26.00
2018-09-22T10:09:04.088Z,26.06
2018-09-22T10:11:33.560Z,26.17
2018-09-22T10:14:02.695Z,26.32
2018-09-22T10:16:31.706Z,26.47
2018-09-22T10:19:01.788Z,26.59
2018-09-22T10:21:30.703Z,26.69
2018-09-22T10:23:59.662Z,26.73
2018-09-22T10:26:29.071Z,26.82
2018-09-22T10:28:58.111Z,26.66
2018-09-22T10:31:27.192Z,26.82
2018-09-22T10:33:56.632Z,26.76
2018-09-22T10:36:25.696Z,26.84
2018-09-22T10:38:54.630Z,26.99
2018-09-22T10:41:23.707Z,27.12
2018-09-22T10:43:52.814Z,27.15
2018-09-22T10:46:21.841Z,27.20
2018-09-22T10:48:51.777Z,27.26
2018-09-22T10:51:20.928Z,27.33
2018-09-22T10:53:49.897Z,27.35
2018-09-22T10:56:18.857Z,27.39
2018-09-22T10:58:47.901Z,27.48
2018-09-22T11:01:16.909Z,27.34
2018-09-22T11:03:46.469Z,27.52
2018-09-22T11:06:15.780Z,27.56
2018-09-22T11:08:44.677Z,27.57
2018-09-22T11:11:13.598Z,27.62
2018-09-22T11:13:42.381Z,27.71
2018-09-22T11:16:11.541Z,27.74
2018-09-22T11:18:40.886Z,27.88
2018-09-22T11:21:09.875Z,28.02
2018-09-22T11:23:42.741Z,28.00
2018-09-22T11:26:11.888Z,28.01
2018-09-22T11:28:40.936Z,28.05
2018-09-22T11:31:10.003Z,28.15
2018-09-22T11:33:38.849Z,28.16
2018-09-22T11:36:07.829Z,28.22
2018-09-22T11:38:37.487Z,28.22
2018-09-22T11:41:06.477Z,28.20
2018-09-22T11:43:35.342Z,28.45
2018-09-22T11:46:04.896Z,28.44
2018-09-22T11:48:33.810Z,28.39
2018-09-22T11:51:02.702Z,28.39
2018-09-22T11:53:32.023Z,28.35
2018-09-22T11:56:00.983Z,28.49
2018-09-22T11:58:30.144Z,28.44
2018-09-22T12:00:59.706Z,28.50
2018-09-22T12:03:28.519Z,28.56
2018-09-22T12:05:57.549Z,28.44
2018-09-22T12:08:26.569Z,28.31
2018-09-22T12:10:55.502Z,28.47
2018-09-22T12:13:24.597Z,28.59
2018-09-22T12:15:53.843Z,28.65
2018-09-22T12:18:23.061Z,28.68
2018-09-22T12:20:51.958Z,28.85
2018-09-22T12:23:21.092Z,28.91
2018-09-22T12:25:50.162Z,28.90
2018-09-22T12:28:19.073Z,28.93
2018-09-22T12:30:48.063Z,29.09
2018-09-22T12:33:17.168Z,29.04
2018-09-22T12:35:46.322Z,29.06
2018-09-22T12:38:15.529Z,29.06
2018-09-22T12:40:44.453Z,29.17
2018-09-22T12:43:13.540Z,29.21
2018-09-22T12:45:42.670Z,29.22
2018-09-22T12:48:11.596Z,29.25
2018-09-22T12:50:40.620Z,29.23
2018-09-22T12:53:10.001Z,29.27
2018-09-22T12:55:39.114Z,29.33
2018-09-22T12:58:08.082Z,29.29
2018-09-22T13:00:37.203Z,29.38
2018-09-22T13:03:06.319Z,29.38
2018-09-22T13:05:35.501Z,29.41
2018-09-22T13:08:04.567Z,29.44
2018-09-22T13:10:33.727Z,29.49
2018-09-22T13:13:02.631Z,29.54
2018-09-22T13:15:31.806Z,29.55
2018-09-22T13:18:00.928Z,29.65
2018-09-22T13:20:29.902Z,29.59
2018-09-22T13:22:59.366Z,29.65
2018-09-22T13:25:28.386Z,29.71
2018-09-22T13:27:57.467Z,29.61
2018-09-22T13:30:26.506Z,29.57
2018-09-22T13:32:55.551Z,29.58
2018-09-22T13:35:24.520Z,29.57
2018-09-22T13:37:53.767Z,29.68
2018-09-22T13:40:22.883Z,29.64
2018-09-22T13:42:51.911Z,29.65
2018-09-22T13:45:20.885Z,29.65
2018-09-22T13:47:49.884Z,29.60
2018-09-22T13:50:18.904Z,29.60
2018-09-22T13:52:48.296Z,29.54
2018-09-22T13:55:17.211Z,29.42
2018-09-22T13:57:46.053Z,29.36
2018-09-22T14:00:15.209Z,29.37
2018-09-22T14:02:44.471Z,29.36
2018-09-22T14:05:13.378Z,29.34
2018-09-22T14:07:42.908Z,29.27
2018-09-22T14:10:12.085Z,29.31
2018-09-22T14:12:42.242Z,29.47
2018-09-22T14:15:11.282Z,29.58
2018-09-22T14:17:40.491Z,29.63
2018-09-22T14:20:09.612Z,29.65
2018-09-22T14:22:38.671Z,29.70
2018-09-22T14:25:07.758Z,29.66
2018-09-22T14:27:36.863Z,29.65
2018-09-22T14:30:06.012Z,29.60
2018-09-22T14:32:35.161Z,29.72
2018-09-22T14:35:04.189Z,29.70
2018-09-22T14:37:33.239Z,29.71
2018-09-22T14:40:02.149Z,29.75
2018-09-22T14:42:31.373Z,29.73
2018-09-22T14:45:00.224Z,29.62
2018-09-22T14:47:29.273Z,29.66
2018-09-22T14:49:58.334Z,29.64
2018-09-22T14:52:27.311Z,29.76
2018-09-22T14:54:56.253Z,29.73
2018-09-22T14:57:25.577Z,29.74
2018-09-22T14:59:54.789Z,29.80
2018-09-22T15:02:23.814Z,29.68
2018-09-22T15:04:52.865Z,29.67
2018-09-22T15:07:21.886Z,29.63
2018-09-22T15:09:50.890Z,29.62
2018-09-22T15:12:20.265Z,29.61
2018-09-22T15:14:49.251Z,29.61
2018-09-22T15:17:18.471Z,29.56
2018-09-22T15:19:47.363Z,29.59
2018-09-22T15:22:16.222Z,29.54
2018-09-22T15:24:45.132Z,29.43
2018-09-22T15:27:14.392Z,29.39
2018-09-22T15:29:43.376Z,29.29
2018-09-22T15:32:12.563Z,29.22
2018-09-22T15:34:41.594Z,29.12
2018-09-22T15:37:10.584Z,29.07
2018-09-22T15:39:39.490Z,28.99
2018-09-22T15:42:08.868Z,28.93
2018-09-22T15:44:37.913Z,28.89
2018-09-22T15:47:07.286Z,28.76
2018-09-22T15:49:36.863Z,28.63
2018-09-22T15:52:05.944Z,28.55
2018-09-22T15:54:34.784Z,28.50
2018-09-22T15:57:04.003Z,28.35
2018-09-22T15:59:33.475Z,28.32
2018-09-22T16:02:02.346Z,28.32
2018-09-22T16:04:31.666Z,28.23
2018-09-22T16:07:00.763Z,28.23
